createdAt,value
2019-04-25T00:02:07.730Z,11.40
2019-04-25T00:04:38.732Z,11.00
2019-04-25T00:07:09.466Z,10.87
2019-04-25T00:09:42.773Z,10.77
2019-04-25T00:12:13.853Z,11.17
2019-04-25T00:14:44.662Z,11.40
2019-04-25T00:17:15.319Z,11.10
2019-04-25T00:19:46.453Z,10.57
2019-04-25T00:22:18.636Z,11.37
2019-04-25T00:25:15.039Z,11.10
2019-04-25T00:27:38.235Z,11.77
2019-04-25T00:30:09.058Z,11.43
2019-04-25T00:32:41.247Z,10.47
2019-04-25T00:35:12.019Z,11.30
2019-04-25T00:37:44.335Z,11.27
2019-04-25T00:40:15.320Z,11.97
2019-04-25T00:42:46.249Z,11.47
2019-04-25T00:45:16.949Z,10.47
2019-04-25T00:47:47.752Z,11.33
2019-04-25T00:50:18.388Z,11.03
2019-04-25T00:52:48.982Z,11.67
2019-04-25T00:55:26.826Z,11.77
2019-04-25T00:57:53.689Z,11.63
2019-04-25T01:00:44.821Z,10.90
2019-04-25T01:03:17.283Z,12.17
2019-04-25T01:05:47.877Z,12.33
2019-04-25T01:08:18.466Z,12.17
2019-04-25T01:10:49.968Z,11.73
2019-04-25T01:13:22.318Z,11.90
2019-04-25T01:15:53.740Z,11.03
2019-04-25T01:18:25.226Z,11.93
2019-04-25T01:20:57.338Z,11.93
2019-04-25T01:23:27.985Z,12.27
2019-04-25T01:25:58.952Z,12.27
2019-04-25T01:28:29.732Z,11.80
2019-04-25T01:31:00.801Z,12.00
2019-04-25T01:33:31.359Z,11.30
2019-04-25T01:36:20.982Z,12.33
2019-04-25T01:38:56.142Z,11.57
2019-04-25T01:41:34.191Z,12.60
2019-04-25T01:44:06.753Z,11.70
2019-04-25T01:46:39.430Z,12.23
2019-04-25T01:49:09.993Z,13.63
2019-04-25T01:51:40.744Z,11.43
2019-04-25T01:54:11.403Z,12.23
2019-04-25T01:56:42.187Z,15.07
2019-04-25T01:59:13.502Z,12.57
2019-04-25T02:01:45.699Z,12.03
2019-04-25T02:04:16.356Z,12.10
2019-04-25T02:06:46.926Z,12.10
2019-04-25T02:09:17.516Z,11.70
2019-04-25T02:11:50.930Z,12.93
2019-04-25T02:14:21.548Z,11.67
2019-04-25T02:16:55.807Z,13.37
2019-04-25T02:19:26.383Z,11.97
2019-04-25T02:21:57.773Z,11.47
2019-04-25T02:24:28.636Z,12.10
2019-04-25T02:26:59.211Z,12.17
2019-04-25T02:29:30.173Z,12.30
2019-04-25T02:32:03.019Z,12.37
2019-04-25T02:34:34.566Z,12.33
2019-04-25T02:37:09.458Z,14.10
2019-04-25T02:39:38.234Z,13.13
2019-04-25T02:42:08.955Z,12.93
2019-04-25T02:44:41.361Z,12.67
2019-04-25T02:47:24.760Z,12.33
2019-04-25T02:50:07.087Z,12.30
2019-04-25T02:52:39.821Z,12.53
2019-04-25T02:55:15.947Z,12.47
2019-04-25T02:57:44.844Z,12.63
2019-04-25T03:00:25.864Z,14.13
2019-04-25T03:02:57.917Z,12.30
2019-04-25T03:05:29.756Z,12.20
2019-04-25T03:08:01.611Z,11.77
2019-04-25T03:10:34.847Z,11.73
2019-04-25T03:13:11.254Z,13.03
2019-04-25T03:15:37.929Z,12.67
2019-04-25T03:18:12.094Z,13.00
2019-04-25T03:20:45.381Z,14.27
2019-04-25T03:23:35.159Z,13.00
2019-04-25T03:26:06.613Z,12.50
2019-04-25T03:28:38.207Z,12.80
2019-04-25T03:31:15.177Z,13.37
2019-04-25T03:33:41.398Z,13.10
2019-04-25T03:36:11.996Z,13.20
2019-04-25T03:38:44.076Z,15.60
2019-04-25T03:41:14.852Z,13.27
2019-04-25T03:43:45.735Z,15.23
2019-04-25T03:46:16.446Z,16.03
2019-04-25T03:48:48.614Z,14.87
2019-04-25T03:51:19.189Z,13.83
2019-04-25T03:53:50.869Z,15.17
2019-04-25T03:56:21.460Z,15.47
2019-04-25T03:58:52.666Z,14.50
2019-04-25T04:01:25.594Z,13.00
2019-04-25T04:03:56.296Z,13.70
2019-04-25T04:06:26.894Z,13.07
2019-04-25T04:08:57.483Z,13.30
2019-04-25T04:11:29.052Z,12.97
2019-04-25T04:13:59.615Z,14.63
2019-04-25T04:16:31.827Z,13.97
2019-04-25T04:19:03.997Z,13.33
2019-04-25T04:21:36.387Z,13.77
2019-04-25T04:24:11.744Z,12.63
2019-04-25T04:26:43.097Z,13.90
2019-04-25T04:29:14.948Z,13.70
2019-04-25T04:31:45.855Z,13.70
2019-04-25T04:34:17.020Z,12.47
2019-04-25T04:36:47.782Z,13.23
2019-04-25T04:39:18.821Z,14.60
2019-04-25T04:41:49.456Z,13.67
2019-04-25T04:44:20.139Z,13.43
2019-04-25T04:46:50.734Z,13.50
2019-04-25T04:49:21.299Z,14.00
2019-04-25T04:51:51.880Z,13.70
2019-04-25T04:54:23.097Z,14.60
2019-04-25T04:56:53.764Z,13.17
2019-04-25T04:59:24.888Z,14.37
2019-04-25T05:02:15.035Z,15.07
2019-04-25T05:04:46.370Z,13.93
2019-04-25T05:07:25.330Z,13.23
2019-04-25T05:09:55.939Z,13.37
2019-04-25T05:12:26.528Z,12.97
2019-04-25T05:14:57.115Z,13.57
2019-04-25T05:17:27.719Z,13.50
2019-04-25T05:19:59.006Z,12.93
2019-04-25T05:22:29.571Z,12.30
2019-04-25T05:25:00.158Z,12.60
2019-04-25T05:27:39.193Z,14.33
2019-04-25T05:30:09.905Z,13.03
2019-04-25T05:32:40.562Z,12.13
2019-04-25T05:35:11.275Z,13.13
2019-04-25T05:37:43.524Z,12.60
2019-04-25T05:40:15.823Z,13.37
2019-04-25T05:42:48.671Z,12.70
2019-04-25T05:45:21.266Z,13.10
2019-04-25T05:47:51.844Z,12.50
2019-04-25T05:50:24.005Z,12.43
2019-04-25T05:52:54.730Z,12.20
2019-04-25T05:55:25.311Z,12.23
2019-04-25T05:57:55.893Z,12.43
2019-04-25T06:00:27.129Z,11.67
2019-04-25T06:02:57.767Z,12.00
2019-04-25T06:05:28.442Z,12.67
2019-04-25T06:07:59.020Z,11.70
2019-04-25T06:10:33.963Z,11.40
2019-04-25T06:13:15.432Z,12.60
2019-04-25T06:15:48.632Z,11.27
2019-04-25T06:18:37.128Z,12.13
2019-04-25T06:21:09.515Z,11.17
2019-04-25T06:23:51.023Z,11.57
2019-04-25T06:26:31.015Z,11.23
2019-04-25T06:28:58.999Z,12.73
2019-04-25T06:31:26.928Z,12.03
2019-04-25T06:33:58.481Z,11.83
2019-04-25T06:36:29.090Z,11.17
2019-04-25T06:38:59.662Z,11.33
2019-04-25T06:41:30.240Z,11.95
2019-04-25T06:44:05.342Z,11.90
2019-04-25T06:46:49.645Z,11.40
2019-04-25T06:49:26.442Z,11.03
2019-04-25T06:51:57.112Z,11.18
2019-04-25T06:54:28.186Z,11.83
2019-04-25T06:56:58.703Z,10.55
2019-04-25T06:59:30.056Z,10.23
2019-04-25T07:02:00.745Z,10.18
2019-04-25T07:04:31.474Z,11.03
2019-04-25T07:07:10.659Z,10.40
2019-04-25T07:09:35.739Z,10.98
2019-04-25T07:12:06.535Z,9.95
2019-04-25T07:14:37.128Z,9.88
2019-04-25T07:17:07.720Z,11.10
2019-04-25T07:19:38.297Z,10.38
2019-04-25T07:22:08.882Z,9.93
2019-04-25T07:24:39.460Z,10.68
2019-04-25T07:27:28.412Z,11.97
2019-04-25T07:30:26.964Z,10.82
2019-04-25T07:33:07.226Z,10.08
2019-04-25T07:35:37.850Z,9.98
2019-04-25T07:38:08.413Z,10.30
2019-04-25T07:40:39.101Z,13.05
2019-04-25T07:43:10.154Z,9.30
2019-04-25T07:45:41.395Z,9.80
2019-04-25T07:48:13.857Z,10.05
2019-04-25T07:50:44.686Z,10.08
2019-04-25T07:53:15.325Z,9.48
2019-04-25T07:55:45.935Z,9.53
2019-04-25T07:58:16.568Z,8.98
2019-04-25T08:00:47.156Z,9.03
2019-04-25T08:03:17.956Z,8.78
2019-04-25T08:05:48.564Z,8.75
2019-04-25T08:08:19.714Z,9.15
2019-04-25T08:10:56.832Z,9.40
2019-04-25T08:13:30.032Z,9.30
2019-04-25T08:16:03.403Z,9.15
2019-04-25T08:18:35.085Z,9.73
2019-04-25T08:21:06.781Z,9.30
2019-04-25T08:23:38.936Z,9.95
2019-04-25T08:26:10.574Z,10.00
2019-04-25T08:28:54.275Z,9.83
2019-04-25T08:31:13.691Z,9.08
2019-04-25T08:33:46.513Z,11.65
2019-04-25T08:36:16.731Z,9.03
2019-04-25T08:38:47.531Z,9.88
2019-04-25T08:41:18.111Z,9.78
2019-04-25T08:43:48.680Z,10.05
2019-04-25T08:46:19.257Z,9.48
2019-04-25T08:49:09.873Z,10.28
2019-04-25T08:51:42.093Z,9.80
2019-04-25T08:54:18.835Z,13.40
2019-04-25T08:56:49.418Z,9.38
2019-04-25T08:59:44.487Z,9.55
2019-04-25T09:02:13.792Z,9.75
2019-04-25T09:05:02.017Z,11.63
2019-04-25T09:07:35.390Z,9.88
2019-04-25T09:10:06.703Z,10.23
2019-04-25T09:12:37.879Z,10.25
2019-04-25T09:15:08.870Z,25.10
2019-04-25T09:17:39.506Z,10.53
2019-04-25T09:20:13.860Z,10.53
2019-04-25T09:22:45.579Z,10.50
2019-04-25T09:25:16.928Z,10.95
2019-04-25T09:27:47.599Z,10.65
2019-04-25T09:30:18.367Z,11.30
2019-04-25T09:32:48.940Z,9.18
2019-04-25T09:35:20.249Z,10.85
2019-04-25T09:37:53.400Z,9.93
2019-04-25T09:40:24.391Z,10.03
2019-04-25T09:42:55.720Z,10.50
2019-04-25T09:45:36.108Z,10.32
2019-04-25T09:48:13.097Z,10.50
2019-04-25T09:50:49.425Z,9.83
2019-04-25T09:53:23.172Z,10.95
2019-04-25T09:56:06.427Z,10.38
2019-04-25T09:58:38.628Z,9.93
2019-04-25T10:01:13.885Z,10.78
2019-04-25T10:03:45.731Z,9.75
2019-04-25T10:06:18.025Z,10.63
2019-04-25T10:08:48.674Z,10.23
2019-04-25T10:11:19.334Z,10.35
2019-04-25T10:14:18.585Z,10.43
2019-04-25T10:16:49.185Z,11.03
2019-04-25T10:19:19.845Z,10.48
2019-04-25T10:21:50.452Z,11.43
2019-04-25T10:24:21.132Z,11.90
2019-04-25T10:26:53.559Z,9.70
2019-04-25T10:29:24.492Z,11.88
2019-04-25T10:31:55.792Z,10.40
2019-04-25T10:34:27.378Z,11.22
2019-04-25T10:36:57.963Z,10.70
2019-04-25T10:39:29.158Z,11.18
2019-04-25T10:41:59.878Z,11.85
2019-04-25T10:44:30.496Z,12.55
2019-04-25T10:47:01.142Z,12.00
2019-04-25T10:49:31.720Z,11.60
2019-04-25T10:52:02.432Z,13.05
2019-04-25T10:54:33.654Z,11.85
2019-04-25T10:57:06.597Z,12.00
2019-04-25T10:59:37.248Z,11.10
2019-04-25T11:02:09.902Z,13.78
2019-04-25T11:04:42.131Z,17.27
2019-04-25T11:07:13.644Z,12.10
2019-04-25T11:09:45.488Z,12.40
2019-04-25T11:12:17.011Z,11.33
2019-04-25T11:14:48.738Z,12.40
2019-04-25T11:17:19.536Z,11.93
2019-04-25T11:19:51.149Z,11.10
2019-04-25T11:22:21.730Z,10.53
2019-04-25T11:24:53.019Z,13.00
2019-04-25T11:27:24.612Z,13.28
2019-04-25T11:30:08.449Z,13.88
2019-04-25T11:32:28.430Z,12.45
2019-04-25T11:34:59.679Z,11.60
2019-04-25T11:37:34.206Z,12.90
2019-04-25T11:40:24.657Z,11.68
2019-04-25T11:42:55.238Z,11.20
2019-04-25T11:45:25.914Z,11.55
2019-04-25T11:47:56.496Z,12.37
2019-04-25T11:50:27.221Z,12.75
2019-04-25T11:52:58.825Z,13.25
2019-04-25T11:55:30.661Z,11.88
2019-04-25T11:58:01.252Z,13.40
2019-04-25T12:00:33.796Z,12.63
2019-04-25T12:03:04.731Z,13.10
2019-04-25T12:05:35.395Z,12.85
2019-04-25T12:08:07.019Z,12.00
2019-04-25T12:10:38.983Z,11.60
2019-04-25T12:13:09.569Z,12.28
2019-04-25T12:15:40.377Z,11.18
2019-04-25T12:18:10.965Z,10.70
2019-04-25T12:20:41.617Z,11.53
2019-04-25T12:23:12.206Z,42.62
2019-04-25T12:25:44.270Z,15.18
2019-04-25T12:28:14.944Z,11.60
2019-04-25T12:30:46.191Z,12.85
2019-04-25T12:33:21.495Z,10.28
2019-04-25T12:35:51.999Z,10.53
2019-04-25T12:38:24.615Z,10.78
2019-04-25T12:40:57.721Z,10.80
2019-04-25T12:43:29.920Z,13.13
2019-04-25T12:46:08.675Z,11.70
2019-04-25T12:48:39.320Z,11.68
2019-04-25T12:51:10.044Z,10.38
2019-04-25T12:53:40.989Z,10.88
2019-04-25T12:56:11.596Z,11.22
2019-04-25T12:58:43.460Z,10.48
2019-04-25T13:01:15.087Z,13.55
2019-04-25T13:03:45.693Z,13.55
2019-04-25T13:06:16.259Z,13.28
2019-04-25T13:08:46.829Z,12.60
2019-04-25T13:11:17.411Z,10.50
2019-04-25T13:13:47.999Z,10.68
2019-04-25T13:16:18.677Z,11.03
2019-04-25T13:18:49.253Z,9.75
2019-04-25T13:21:19.912Z,10.20
2019-04-25T13:23:50.564Z,18.87
2019-04-25T13:26:24.702Z,12.20
2019-04-25T13:29:11.953Z,9.15
2019-04-25T13:31:56.084Z,10.88
2019-04-25T13:34:36.270Z,9.23
2019-04-25T13:37:01.047Z,22.22
2019-04-25T13:39:31.858Z,10.13
2019-04-25T13:42:05.131Z,10.40
2019-04-25T13:44:34.786Z,9.13
2019-04-25T13:47:06.777Z,9.80
2019-04-25T13:49:37.444Z,12.90
2019-04-25T13:52:09.341Z,9.50
2019-04-25T13:54:40.055Z,11.20
2019-04-25T13:57:13.236Z,8.98
2019-04-25T13:59:45.857Z,8.33
2019-04-25T14:02:17.073Z,8.60
2019-04-25T14:04:47.671Z,7.55
2019-04-25T14:07:18.312Z,9.53
2019-04-25T14:09:48.976Z,9.10
2019-04-25T14:12:19.564Z,13.00
2019-04-25T14:14:50.196Z,11.40
2019-04-25T14:17:38.686Z,8.93
2019-04-25T14:20:24.869Z,10.10
2019-04-25T14:22:55.629Z,8.35
2019-04-25T14:25:28.492Z,7.55
2019-04-25T14:27:59.064Z,7.28
2019-04-25T14:30:32.580Z,9.15
2019-04-25T14:33:04.200Z,7.67
2019-04-25T14:35:34.833Z,7.28
2019-04-25T14:38:06.056Z,7.25
2019-04-25T14:40:36.714Z,8.15
2019-04-25T14:43:07.856Z,8.30
2019-04-25T14:45:44.487Z,6.80
2019-04-25T14:48:10.754Z,7.00
2019-04-25T14:50:41.361Z,13.55
2019-04-25T14:53:12.194Z,9.58
2019-04-25T14:55:44.506Z,6.95
2019-04-25T14:58:16.731Z,9.03
2019-04-25T15:00:48.950Z,8.48
2019-04-25T15:03:19.608Z,12.65
2019-04-25T15:05:50.200Z,8.45
2019-04-25T15:08:20.778Z,7.65
2019-04-25T15:10:51.377Z,7.70
2019-04-25T15:13:22.094Z,8.60
2019-04-25T15:15:52.689Z,10.60
2019-04-25T15:18:23.514Z,8.65
2019-04-25T15:20:54.491Z,7.87
2019-04-25T15:23:25.447Z,7.87
2019-04-25T15:25:56.005Z,7.80
2019-04-25T15:28:27.480Z,7.33
2019-04-25T15:30:58.168Z,7.37
2019-04-25T15:33:28.753Z,7.30
2019-04-25T15:36:06.966Z,7.30
2019-04-25T15:38:39.203Z,7.22
2019-04-25T15:41:17.591Z,7.10
2019-04-25T15:44:08.289Z,10.33
2019-04-25T15:46:40.517Z,8.25
2019-04-25T15:49:11.061Z,8.28
2019-04-25T15:51:41.750Z,8.58
2019-04-25T15:54:12.855Z,8.10
2019-04-25T15:56:43.428Z,8.30
2019-04-25T15:59:15.435Z,8.17
2019-04-25T16:01:47.525Z,7.75
2019-04-25T16:04:18.108Z,7.77
2019-04-25T16:06:50.170Z,7.30
2019-04-25T16:09:20.800Z,6.95
2019-04-25T16:11:51.360Z,7.67
2019-04-25T16:14:21.953Z,7.90
2019-04-25T16:16:52.579Z,7.72
2019-04-25T16:19:23.227Z,7.85
2019-04-25T16:21:53.801Z,7.57
2019-04-25T16:24:24.375Z,8.60
2019-04-25T16:26:54.967Z,7.07
2019-04-25T16:29:25.543Z,8.23
2019-04-25T16:31:57.951Z,7.83
2019-04-25T16:34:29.509Z,8.17
2019-04-25T16:37:00.906Z,7.90
2019-04-25T16:39:33.303Z,7.10
2019-04-25T16:42:04.192Z,8.03
2019-04-25T16:44:34.887Z,18.73
2019-04-25T16:47:05.646Z,11.30
2019-04-25T16:49:36.946Z,13.60
2019-04-25T16:52:09.587Z,9.03
2019-04-25T16:54:40.211Z,8.77
2019-04-25T16:57:11.962Z,10.20
2019-04-25T16:59:42.675Z,10.73
2019-04-25T17:02:14.373Z,7.80
2019-04-25T17:04:44.985Z,7.90
2019-04-25T17:07:15.765Z,8.07
2019-04-25T17:09:46.350Z,7.87
2019-04-25T17:12:17.364Z,7.33
2019-04-25T17:15:08.227Z,7.93
2019-04-25T17:17:40.447Z,7.83
2019-04-25T17:20:15.737Z,8.27
2019-04-25T17:22:46.465Z,7.63
2019-04-25T17:25:17.613Z,8.00
2019-04-25T17:27:48.428Z,8.03
2019-04-25T17:30:19.663Z,8.30
2019-04-25T17:32:54.877Z,8.47
2019-04-25T17:35:30.857Z,8.80
2019-04-25T17:38:06.897Z,9.97
2019-04-25T17:40:38.476Z,9.27
2019-04-25T17:43:11.201Z,9.87
2019-04-25T17:45:41.821Z,9.53
2019-04-25T17:48:12.404Z,35.53
2019-04-25T17:50:44.151Z,13.93
2019-04-25T17:53:14.740Z,12.70
2019-04-25T17:55:45.936Z,12.63
2019-04-25T17:58:16.661Z,27.30
2019-04-25T18:00:48.094Z,21.70
2019-04-25T18:03:18.757Z,27.50
2019-04-25T18:05:49.349Z,50.97
2019-04-25T18:08:19.932Z,35.50
2019-04-25T18:10:50.543Z,23.87
2019-04-25T18:13:23.858Z,25.33
2019-04-25T18:15:59.272Z,19.00
2019-04-25T18:18:41.421Z,14.73
2019-04-25T18:21:12.161Z,15.20
2019-04-25T18:24:00.620Z,13.00
2019-04-25T18:26:39.243Z,13.63
2019-04-25T18:29:26.038Z,14.70
2019-04-25T18:32:00.780Z,14.70
2019-04-25T18:34:40.059Z,14.10
2019-04-25T18:37:22.411Z,15.90
2019-04-25T18:40:09.881Z,17.87
2019-04-25T18:42:42.156Z,18.17
2019-04-25T18:45:14.738Z,18.67
2019-04-25T18:47:45.450Z,19.90
2019-04-25T18:50:17.935Z,24.70
2019-04-25T18:52:50.192Z,23.13
2019-04-25T18:55:29.269Z,15.90
2019-04-25T18:58:04.301Z,15.33
2019-04-25T19:00:49.431Z,12.03
2019-04-25T19:03:23.383Z,11.53
2019-04-25T19:06:02.077Z,11.53
2019-04-25T19:08:32.653Z,12.30
2019-04-25T19:11:03.602Z,11.50
2019-04-25T19:13:34.410Z,11.37
2019-04-25T19:16:05.226Z,11.57
2019-04-25T19:18:35.829Z,12.57
2019-04-25T19:21:06.526Z,14.37
2019-04-25T19:23:37.835Z,12.27
2019-04-25T19:26:08.664Z,13.53
2019-04-25T19:28:39.986Z,13.63
2019-04-25T19:31:12.308Z,12.23
2019-04-25T19:33:43.365Z,13.50
2019-04-25T19:36:14.028Z,16.23
2019-04-25T19:38:45.878Z,28.13
2019-04-25T19:41:19.773Z,14.83
2019-04-25T19:43:52.370Z,13.23
2019-04-25T19:46:25.059Z,13.43
2019-04-25T19:48:57.405Z,13.77
2019-04-25T19:51:28.146Z,12.77
2019-04-25T19:53:58.884Z,13.77
2019-04-25T19:56:29.475Z,12.33
2019-04-25T19:59:00.727Z,13.63
2019-04-25T20:01:31.965Z,12.83
2019-04-25T20:04:13.735Z,11.63
2019-04-25T20:07:03.412Z,12.10
2019-04-25T20:09:46.906Z,11.57
2019-04-25T20:12:18.659Z,12.33
2019-04-25T20:14:51.278Z,11.80
2019-04-25T20:17:22.897Z,12.80
2019-04-25T20:19:54.362Z,12.03
2019-04-25T20:22:25.320Z,12.30
2019-04-25T20:24:56.616Z,12.70
2019-04-25T20:27:27.268Z,13.27
2019-04-25T20:29:57.926Z,20.23
2019-04-25T20:32:29.082Z,25.60
2019-04-25T20:35:00.048Z,27.83
2019-04-25T20:37:31.161Z,17.67
2019-04-25T20:40:02.161Z,16.80
2019-04-25T20:42:32.967Z,21.10
2019-04-25T20:45:05.554Z,21.10
2019-04-25T20:47:36.163Z,16.37
2019-04-25T20:50:07.154Z,15.77
2019-04-25T20:52:38.644Z,15.07
2019-04-25T20:55:11.221Z,14.33
2019-04-25T20:57:42.058Z,13.87
2019-04-25T21:00:16.098Z,14.87
2019-04-25T21:02:48.343Z,14.23
2019-04-25T21:05:21.311Z,14.63
2019-04-25T21:07:53.317Z,15.30
2019-04-25T21:10:23.978Z,14.67
2019-04-25T21:12:54.613Z,14.30
2019-04-25T21:15:26.822Z,12.53
2019-04-25T21:18:01.100Z,13.30
2019-04-25T21:20:31.957Z,14.33
2019-04-25T21:23:04.255Z,15.07
2019-04-25T21:25:35.634Z,15.13
2019-04-25T21:28:07.878Z,16.60
2019-04-25T21:30:38.467Z,16.40
2019-04-25T21:33:09.188Z,13.93
2019-04-25T21:35:40.137Z,17.37
2019-04-25T21:38:10.836Z,17.03
2019-04-25T21:40:59.878Z,15.80
2019-04-25T21:43:32.298Z,15.37
2019-04-25T21:46:04.625Z,14.60
2019-04-25T21:48:35.765Z,14.27
2019-04-25T21:51:24.848Z,16.37
2019-04-25T21:53:55.551Z,14.37
2019-04-25T21:56:26.412Z,16.00
2019-04-25T21:58:57.751Z,15.23
2019-04-25T22:01:33.385Z,14.80
2019-04-25T22:04:05.204Z,16.47
2019-04-25T22:06:36.177Z,15.80
2019-04-25T22:09:10.128Z,17.07
2019-04-25T22:11:40.870Z,16.47
2019-04-25T22:14:12.654Z,15.57
2019-04-25T22:16:43.543Z,15.40
2019-04-25T22:19:14.494Z,16.70
2019-04-25T22:21:45.279Z,15.03
2019-04-25T22:24:17.142Z,14.87
2019-04-25T22:26:50.410Z,14.87
2019-04-25T22:29:22.568Z,14.80
2019-04-25T22:32:01.497Z,16.17
2019-04-25T22:34:52.059Z,15.73
2019-04-25T22:37:15.377Z,18.60
2019-04-25T22:39:46.453Z,17.47
2019-04-25T22:42:18.643Z,20.23
2019-04-25T22:44:49.507Z,17.43
2019-04-25T22:47:21.057Z,16.10
2019-04-25T22:49:51.752Z,15.57
2019-04-25T22:52:22.595Z,14.80
2019-04-25T22:54:53.252Z,14.93
2019-04-25T22:57:24.264Z,15.20
2019-04-25T22:59:55.130Z,14.10
2019-04-25T23:02:27.622Z,13.80
2019-04-25T23:05:12.884Z,16.50
2019-04-25T23:07:38.428Z,16.90
2019-04-25T23:10:10.331Z,15.30
2019-04-25T23:12:41.307Z,14.43
2019-04-25T23:15:13.057Z,13.60
2019-04-25T23:17:43.923Z,16.13
2019-04-25T23:20:14.820Z,19.00
2019-04-25T23:22:45.656Z,18.13
2019-04-25T23:25:18.185Z,16.33
2019-04-25T23:28:08.523Z,16.70
2019-04-25T23:30:41.425Z,19.37
2019-04-25T23:33:12.597Z,17.77
2019-04-25T23:35:45.102Z,17.40
2019-04-25T23:38:16.757Z,31.63
2019-04-25T23:40:47.327Z,19.87
2019-04-25T23:43:18.170Z,18.13
2019-04-25T23:45:48.794Z,18.10
2019-04-25T23:48:20.509Z,17.37
2019-04-25T23:50:53.617Z,18.33
2019-04-25T23:53:23.695Z,18.40
2019-04-25T23:55:54.278Z,17.97
2019-04-25T23:58:24.924Z,17.53
